createdAt,value
2022-10-14T00:09:18.863Z,97673.41
2022-10-14T00:11:44.774Z,97688.50
2022-10-14T00:14:10.718Z,97681.13
2022-10-14T00:16:36.669Z,97681.06
2022-10-14T00:19:03.044Z,97673.16
2022-10-14T00:21:28.938Z,97669.31
2022-10-14T00:23:54.855Z,97676.19
2022-10-14T00:26:20.775Z,97668.03
2022-10-14T00:28:46.820Z,97670.44
2022-10-14T00:31:12.874Z,97676.75
2022-10-14T00:33:39.804Z,97670.06
2022-10-14T00:36:06.689Z,97668.88
2022-10-14T00:38:32.601Z,97656.38
2022-10-14T00:40:58.497Z,97658.13
2022-10-14T00:43:25.130Z,97663.28
2022-10-14T00:45:51.978Z,97664.44
2022-10-14T00:48:17.923Z,97665.03
2022-10-14T00:50:43.837Z,97660.81
2022-10-14T00:53:09.811Z,97666.38
2022-10-14T00:55:36.454Z,97659.03
2022-10-14T00:58:02.355Z,97660.22
2022-10-14T01:00:28.355Z,97653.31
2022-10-14T01:02:54.675Z,97657.75
2022-10-14T01:05:20.653Z,97654.91
2022-10-14T01:07:46.558Z,97654.97
2022-10-14T01:10:14.775Z,97651.28
2022-10-14T01:12:41.424Z,97647.16
2022-10-14T01:15:07.350Z,97643.09
2022-10-14T01:17:33.274Z,97637.66
2022-10-14T01:20:00.032Z,97636.88
2022-10-14T01:22:27.100Z,97639.47
2022-10-14T01:24:53.209Z,97635.38
2022-10-14T01:27:20.062Z,97630.44
2022-10-14T01:29:45.981Z,97632.53
2022-10-14T01:32:11.873Z,97629.88
2022-10-14T01:34:37.852Z,97622.63
2022-10-14T01:37:03.766Z,97622.66
2022-10-14T01:39:29.710Z,97618.00
2022-10-14T01:41:55.634Z,97614.22
2022-10-14T01:44:23.318Z,97619.38
2022-10-14T01:46:49.245Z,97622.50
2022-10-14T01:49:17.680Z,97619.63
2022-10-14T01:51:47.500Z,97617.59
2022-10-14T01:54:14.286Z,97622.88
2022-10-14T01:56:40.829Z,97622.50
2022-10-14T01:59:07.732Z,97624.16
2022-10-14T02:01:34.269Z,97623.13
2022-10-14T02:04:00.245Z,97620.25
2022-10-14T02:06:26.166Z,97607.84
2022-10-14T02:08:52.949Z,97609.03
2022-10-14T02:11:19.671Z,97599.84
2022-10-14T02:13:45.609Z,97608.19
2022-10-14T02:16:11.541Z,97598.66
2022-10-14T02:18:37.488Z,97593.56
2022-10-14T02:21:04.156Z,97586.84
2022-10-14T02:23:30.081Z,97593.78
2022-10-14T02:25:55.988Z,97592.75
2022-10-14T02:28:21.992Z,97600.56
2022-10-14T02:30:47.962Z,97593.22
2022-10-14T02:33:14.833Z,97595.56
2022-10-14T02:35:40.760Z,97599.78
2022-10-14T02:38:07.524Z,97592.44
2022-10-14T02:40:34.583Z,97598.16
2022-10-14T02:43:00.487Z,97601.06
2022-10-14T02:45:27.731Z,97597.19
2022-10-14T02:47:55.436Z,97600.63
2022-10-14T02:50:21.648Z,97604.69
2022-10-14T02:52:47.686Z,97612.66
2022-10-14T02:55:13.971Z,97605.13
2022-10-14T03:00:20.695Z,97601.25
2022-10-14T05:10:51.645Z,97575.09
2022-10-14T05:13:18.306Z,97571.03
2022-10-14T05:15:51.693Z,97577.72
2022-10-14T05:18:18.057Z,97564.13
2022-10-14T05:20:44.033Z,97559.66
2022-10-14T05:23:10.470Z,97563.31
2022-10-14T05:25:36.395Z,97566.94
2022-10-14T05:28:02.371Z,97558.63
2022-10-14T05:30:34.387Z,97555.16
2022-10-14T05:33:00.732Z,97562.06
2022-10-14T05:35:53.519Z,97558.00
2022-10-14T05:38:12.637Z,97563.50
2022-10-14T05:40:38.578Z,97564.94
2022-10-14T05:43:05.385Z,97575.50
2022-10-14T05:45:31.326Z,97568.81
2022-10-14T05:47:57.307Z,97571.78
2022-10-14T05:50:24.681Z,97567.31
2022-10-14T05:52:50.639Z,97562.88
2022-10-14T05:55:16.570Z,97564.88
2022-10-14T06:00:26.921Z,97564.13
2022-10-14T06:02:52.947Z,97567.16
2022-10-14T06:05:21.205Z,97569.78
2022-10-14T06:07:47.175Z,97568.59
2022-10-14T06:10:13.138Z,97569.59
2022-10-14T06:12:39.181Z,97572.25
2022-10-14T06:15:05.162Z,97575.09
2022-10-14T06:17:31.111Z,97576.34
2022-10-14T06:19:57.948Z,97583.44
2022-10-14T06:22:24.280Z,97577.13
2022-10-14T06:24:50.408Z,97579.56
2022-10-14T06:27:16.998Z,97590.53
2022-10-14T06:29:42.967Z,97588.09
2022-10-14T06:32:08.928Z,97584.44
2022-10-14T06:34:34.920Z,97586.25
2022-10-14T06:37:02.445Z,97591.47
2022-10-14T06:39:29.070Z,97595.94
2022-10-14T06:41:55.022Z,97600.59
2022-10-14T06:44:20.974Z,97596.84
2022-10-14T06:46:46.914Z,97601.88
2022-10-14T06:49:12.847Z,97609.22
2022-10-14T06:51:38.813Z,97608.63
2022-10-14T06:54:05.512Z,97602.34
2022-10-14T06:56:31.473Z,97609.09
2022-10-14T06:58:57.402Z,97604.81
2022-10-14T07:01:23.422Z,97603.88
2022-10-14T07:03:52.849Z,97600.16
2022-10-14T07:06:21.838Z,97598.50
2022-10-14T07:08:47.762Z,97604.31
2022-10-14T07:11:14.521Z,97601.84
2022-10-14T07:13:40.489Z,97600.84
2022-10-14T07:16:06.490Z,97597.41
2022-10-14T07:18:32.480Z,97600.53
2022-10-14T07:20:59.086Z,97602.50
2022-10-14T07:23:25.748Z,97602.47
2022-10-14T07:25:51.719Z,97602.91
2022-10-14T07:28:18.343Z,97603.88
2022-10-14T07:30:45.223Z,97600.13
2022-10-14T07:33:11.161Z,97596.34
2022-10-14T07:35:37.118Z,97604.75
2022-10-14T07:38:03.128Z,97616.13
2022-10-14T07:40:30.446Z,97611.25
2022-10-14T07:42:58.072Z,97615.38
2022-10-14T07:45:24.301Z,97619.56
2022-10-14T07:47:50.634Z,97629.88
2022-10-14T07:50:16.957Z,97630.94
2022-10-14T07:52:43.248Z,97623.91
2022-10-14T07:55:09.530Z,97624.88
2022-10-14T07:57:35.769Z,97629.22
2022-10-14T10:08:01.743Z,97626.69
2022-10-14T10:10:28.340Z,97618.66
2022-10-14T10:12:54.957Z,97621.13
2022-10-14T10:15:21.798Z,97620.47
2022-10-14T10:17:48.466Z,97614.81
2022-10-14T10:20:15.521Z,97624.91
2022-10-14T10:22:42.149Z,97620.56
2022-10-14T10:25:08.749Z,97620.63
2022-10-14T10:27:35.360Z,97619.16
2022-10-14T10:30:01.978Z,97610.09
2022-10-14T10:32:28.574Z,97605.09
2022-10-14T10:34:55.183Z,97608.75
2022-10-14T10:37:21.988Z,97606.31
2022-10-14T10:39:48.796Z,97600.41
2022-10-14T10:42:15.418Z,97598.91
2022-10-14T10:44:42.014Z,97595.31
2022-10-14T10:47:08.636Z,97597.09
2022-10-14T10:49:35.389Z,97588.81
2022-10-14T10:52:02.007Z,97584.84
2022-10-14T10:54:28.615Z,97581.19
2022-10-14T10:56:55.211Z,97570.63
2022-10-14T10:59:21.838Z,97571.75
2022-10-14T11:01:48.576Z,97568.75
2022-10-14T11:04:15.284Z,97574.59
2022-10-14T11:06:42.412Z,97567.72
2022-10-14T11:09:09.019Z,97561.13
2022-10-14T11:11:35.823Z,97561.31
2022-10-14T11:14:02.825Z,97556.38
2022-10-14T11:16:29.719Z,97556.59
2022-10-14T11:18:56.421Z,97555.41
2022-10-14T11:21:23.050Z,97550.31
2022-10-14T11:23:49.660Z,97547.19
2022-10-14T11:26:16.364Z,97544.47
2022-10-14T11:28:43.067Z,97543.47
2022-10-14T11:31:09.784Z,97543.56
2022-10-14T11:33:39.753Z,97539.31
2022-10-14T11:36:06.814Z,97536.28
2022-10-14T11:38:36.372Z,97535.13
2022-10-14T11:41:02.980Z,97530.06
2022-10-14T11:43:29.564Z,97539.63
2022-10-14T11:45:56.183Z,97538.50
2022-10-14T11:48:22.771Z,97535.78
2022-10-14T11:50:49.396Z,97533.50
2022-10-14T11:53:16.007Z,97524.03
2022-10-14T11:55:42.655Z,97530.63
2022-10-14T11:58:09.238Z,97526.91
2022-10-14T12:00:35.862Z,97519.31
2022-10-14T12:03:02.550Z,97522.50
2022-10-14T12:05:29.203Z,97514.28
2022-10-14T12:07:55.802Z,97511.19
2022-10-14T12:10:22.465Z,97512.50
2022-10-14T12:12:49.063Z,97509.91
2022-10-14T12:15:15.724Z,97504.81
2022-10-14T12:17:42.352Z,97505.25
2022-10-14T12:20:08.964Z,97509.88
2022-10-14T12:22:35.575Z,97504.88
2022-10-14T12:25:02.193Z,97506.50
2022-10-14T12:27:28.854Z,97497.47
2022-10-14T12:29:55.522Z,97486.06
2022-10-14T12:32:22.453Z,97490.38
2022-10-14T12:34:49.385Z,97481.50
2022-10-14T12:37:15.988Z,97479.09
2022-10-14T12:39:42.594Z,97476.91
2022-10-14T12:42:09.202Z,97478.50
2022-10-14T12:44:35.848Z,97477.41
2022-10-14T12:47:02.478Z,97476.84
2022-10-14T12:49:29.087Z,97478.22
2022-10-14T12:51:55.719Z,97485.53
2022-10-14T12:54:22.331Z,97489.81
2022-10-14T12:56:48.915Z,97481.38
2022-10-14T13:01:43.051Z,97475.88
2022-10-14T13:04:10.130Z,97473.13
2022-10-14T13:06:36.842Z,97475.38
2022-10-14T13:09:03.451Z,97473.44
2022-10-14T13:11:30.047Z,97463.75
2022-10-14T13:13:56.819Z,97467.94
2022-10-14T13:16:23.424Z,97472.63
2022-10-14T13:18:50.039Z,97463.22
2022-10-14T13:21:16.658Z,97473.31
2022-10-14T13:23:43.251Z,97468.97
2022-10-14T13:26:09.861Z,97479.41
2022-10-14T13:28:36.549Z,97480.28
2022-10-14T13:31:03.226Z,97478.97
2022-10-14T13:33:29.914Z,97484.13
2022-10-14T13:35:56.586Z,97484.41
2022-10-14T13:38:23.187Z,97482.91
2022-10-14T13:40:49.791Z,97473.06
2022-10-14T13:43:16.418Z,97479.66
2022-10-14T13:45:43.055Z,97484.72
2022-10-14T13:48:09.699Z,97481.31
2022-10-14T13:50:36.320Z,97477.91
2022-10-14T13:53:02.912Z,97475.81
2022-10-14T13:55:29.526Z,97476.25
2022-10-14T13:58:12.021Z,97475.75
2022-10-14T14:00:41.585Z,97463.34
2022-10-14T14:03:08.772Z,97461.63
2022-10-14T14:05:35.452Z,97458.22
2022-10-14T14:11:14.457Z,97445.50
2022-10-14T14:13:35.269Z,97441.22
2022-10-14T14:16:01.963Z,97442.06
2022-10-14T14:18:34.009Z,97440.44
2022-10-14T14:21:09.989Z,97440.16
2022-10-14T14:23:36.624Z,97436.41
2022-10-14T14:26:19.001Z,97436.69
2022-10-14T14:28:46.293Z,97433.72
2022-10-14T14:31:12.933Z,97425.94
2022-10-14T14:33:39.558Z,97437.09
2022-10-14T14:36:06.161Z,97435.56
2022-10-14T14:38:32.766Z,97441.00
2022-10-14T14:40:59.400Z,97444.72
2022-10-14T14:43:27.137Z,97450.88
2022-10-14T14:45:55.569Z,97452.81
2022-10-14T14:48:22.197Z,97460.88
2022-10-14T14:50:48.814Z,97459.00
2022-10-14T14:53:15.409Z,97459.63
2022-10-14T14:55:42.033Z,97461.69
2022-10-14T14:58:08.684Z,97457.16
2022-10-14T15:00:35.286Z,97459.00
2022-10-14T15:03:01.921Z,97457.44
2022-10-14T15:05:28.519Z,97461.09
2022-10-14T15:07:55.131Z,97460.00
2022-10-14T15:10:21.773Z,97460.56
2022-10-14T15:12:48.406Z,97461.72
2022-10-14T15:15:15.035Z,97459.59
2022-10-14T15:17:41.624Z,97454.53
2022-10-14T15:20:08.271Z,97460.34
2022-10-14T15:22:35.374Z,97458.91
2022-10-14T15:25:02.246Z,97460.56
2022-10-14T15:27:28.859Z,97460.97
2022-10-14T15:29:55.462Z,97461.00
2022-10-14T15:32:22.286Z,97464.53
2022-10-14T15:34:49.136Z,97461.78
2022-10-14T15:37:15.747Z,97461.16
2022-10-14T15:39:42.370Z,97455.28
2022-10-14T15:42:08.963Z,97449.25
2022-10-14T15:44:35.620Z,97463.13
2022-10-14T15:47:02.216Z,97457.94
2022-10-14T15:49:28.831Z,97462.94
2022-10-14T15:51:55.433Z,97463.78
2022-10-14T15:54:22.051Z,97467.50
2022-10-14T15:56:48.677Z,97467.59
2022-10-14T15:59:15.360Z,97472.75
2022-10-14T16:01:49.704Z,97467.69
2022-10-14T16:04:16.331Z,97469.25
2022-10-14T16:06:44.189Z,97473.97
2022-10-14T16:09:10.787Z,97465.09
2022-10-14T16:11:37.390Z,97469.06
2022-10-14T16:14:05.032Z,97473.63
2022-10-14T16:16:31.621Z,97471.19
2022-10-14T16:18:58.445Z,97465.66
2022-10-14T16:21:25.060Z,97472.94
2022-10-14T16:23:51.695Z,97477.16
2022-10-14T16:26:18.337Z,97470.22
2022-10-14T16:28:44.970Z,97475.78
2022-10-14T16:31:11.607Z,97467.72
2022-10-14T16:33:40.387Z,97474.78
2022-10-14T16:36:09.820Z,97475.50
2022-10-14T16:38:36.409Z,97476.94
2022-10-14T16:41:03.027Z,97486.16
2022-10-14T16:43:29.645Z,97487.06
2022-10-14T16:45:56.267Z,97482.78
2022-10-14T16:48:22.900Z,97490.63
2022-10-14T16:50:49.532Z,97484.63
2022-10-14T16:53:16.129Z,97486.41
2022-10-14T16:55:42.739Z,97491.50
2022-10-14T16:58:09.373Z,97490.84
2022-10-14T17:00:35.963Z,97492.28
2022-10-14T17:03:02.645Z,97485.16
2022-10-14T17:05:29.265Z,97484.38
2022-10-14T17:07:55.852Z,97483.94
2022-10-14T17:10:22.478Z,97498.69
2022-10-14T17:12:49.067Z,97495.22
2022-10-14T17:15:15.687Z,97505.63
2022-10-14T17:17:42.307Z,97509.13
2022-10-14T17:20:08.906Z,97501.63
2022-10-14T17:22:35.553Z,97507.91
2022-10-14T17:25:02.163Z,97511.97
2022-10-14T17:27:28.778Z,97514.88
2022-10-14T17:29:58.185Z,97506.19
2022-10-14T17:32:25.215Z,97513.13
2022-10-14T17:34:53.481Z,97525.00
2022-10-14T17:37:20.320Z,97516.41
2022-10-14T17:39:46.938Z,97526.00
2022-10-14T17:42:13.599Z,97520.47
2022-10-14T17:44:43.794Z,97518.03
2022-10-14T17:47:10.670Z,97515.28
2022-10-14T17:49:37.256Z,97525.19
2022-10-14T17:52:03.906Z,97515.13
2022-10-14T17:54:30.496Z,97529.38
2022-10-14T17:56:57.117Z,97522.88
2022-10-14T17:59:23.759Z,97524.97
2022-10-14T18:02:02.096Z,97518.59
2022-10-14T18:04:29.911Z,97525.19
2022-10-14T18:06:56.503Z,97530.97
2022-10-14T18:09:23.134Z,97534.91
2022-10-14T18:12:08.086Z,97540.22
2022-10-14T18:14:35.174Z,97540.91
2022-10-14T18:17:01.896Z,97533.03
2022-10-14T18:19:28.525Z,97535.81
2022-10-14T18:21:55.143Z,97535.78
2022-10-14T18:24:21.743Z,97532.94
2022-10-14T18:26:48.346Z,97535.81
2022-10-14T18:29:14.966Z,97537.06
2022-10-14T18:31:41.688Z,97538.25
2022-10-14T18:34:08.332Z,97538.13
2022-10-14T18:36:34.966Z,97544.13
2022-10-14T18:39:01.589Z,97540.22
2022-10-14T18:41:28.191Z,97546.00
2022-10-14T18:43:54.788Z,97541.88
2022-10-14T18:46:21.407Z,97546.72
2022-10-14T18:48:47.995Z,97552.50
2022-10-14T18:51:14.608Z,97547.38
2022-10-14T18:53:41.241Z,97545.88
2022-10-14T18:56:07.850Z,97539.41
2022-10-14T18:58:34.453Z,97546.34
2022-10-14T19:01:01.120Z,97531.91
2022-10-14T19:03:27.775Z,97545.53
2022-10-14T19:05:54.387Z,97536.88
2022-10-14T19:08:21.005Z,97541.28
2022-10-14T19:10:47.628Z,97542.06
2022-10-14T19:13:14.256Z,97544.81
2022-10-14T19:15:44.529Z,97547.63
2022-10-14T19:18:12.599Z,97554.59
2022-10-14T19:20:39.189Z,97550.72
2022-10-14T19:23:05.794Z,97547.50
2022-10-14T19:25:32.408Z,97544.00
2022-10-14T19:27:59.040Z,97543.75
2022-10-14T19:30:25.651Z,97547.03
2022-10-14T19:32:52.251Z,97545.06
2022-10-14T19:37:50.359Z,97538.81
2022-10-14T19:40:19.882Z,97537.41
2022-10-14T19:42:49.511Z,97535.22
2022-10-14T19:45:16.102Z,97544.44
2022-10-14T19:47:42.735Z,97540.75
2022-10-14T19:50:09.638Z,97541.41
2022-10-14T19:52:36.286Z,97545.34
2022-10-14T19:55:02.884Z,97551.47
2022-10-14T19:57:29.492Z,97552.97
2022-10-14T19:59:56.135Z,97562.19
2022-10-14T20:02:22.762Z,97566.91
2022-10-14T20:04:49.384Z,97574.78
2022-10-14T20:07:15.972Z,97569.44
2022-10-14T20:09:42.607Z,97569.00
2022-10-14T20:12:09.210Z,97561.47
2022-10-14T20:14:35.833Z,97569.69
2022-10-14T20:17:02.440Z,97563.47
2022-10-14T20:19:29.030Z,97565.78
2022-10-14T20:21:55.661Z,97561.03
2022-10-14T20:24:22.282Z,97559.31
2022-10-14T20:26:48.896Z,97561.78
2022-10-14T20:29:15.527Z,97572.16
2022-10-14T20:31:42.234Z,97576.84
2022-10-14T20:34:10.354Z,97575.09
2022-10-14T20:36:38.032Z,97579.38
2022-10-14T20:39:04.630Z,97570.19
2022-10-14T20:41:31.268Z,97565.16
2022-10-14T20:43:57.904Z,97554.06
2022-10-14T20:46:24.634Z,97538.50
2022-10-14T20:48:51.460Z,97538.28
2022-10-14T20:51:18.094Z,97525.19
2022-10-14T20:53:44.713Z,97517.41
2022-10-14T20:56:11.307Z,97513.91
2022-10-14T20:58:37.930Z,97511.91
2022-10-14T21:01:04.621Z,97511.34
2022-10-14T21:03:31.272Z,97518.66
2022-10-14T21:05:57.866Z,97512.34
2022-10-14T21:08:24.475Z,97513.91
2022-10-14T21:10:51.089Z,97516.91
2022-10-14T21:13:17.681Z,97513.19
2022-10-14T21:15:44.325Z,97509.03
2022-10-14T21:18:10.917Z,97512.13
2022-10-14T21:20:37.541Z,97515.31
2022-10-14T21:23:04.157Z,97508.13
2022-10-14T21:25:30.781Z,97511.00
2022-10-14T21:27:57.429Z,97504.59
2022-10-14T21:30:24.019Z,97515.00
2022-10-14T21:32:50.622Z,97514.69
2022-10-14T21:35:17.253Z,97510.44
2022-10-14T21:37:43.847Z,97509.09
2022-10-14T21:40:10.468Z,97508.94
2022-10-14T21:42:37.057Z,97517.16
2022-10-14T21:45:03.700Z,97512.28
2022-10-14T21:47:30.330Z,97511.53
2022-10-14T21:49:56.948Z,97507.97
2022-10-14T21:52:23.801Z,97493.84
2022-10-14T21:54:50.643Z,97498.03
2022-10-14T21:57:17.247Z,97490.19
2022-10-14T21:59:44.009Z,97491.59
2022-10-14T22:02:10.669Z,97478.31
2022-10-14T22:04:38.399Z,97486.16
2022-10-14T22:07:05.119Z,97487.03
2022-10-14T22:09:31.748Z,97482.78
2022-10-14T22:11:58.385Z,97484.03
2022-10-14T22:14:25.010Z,97484.31
2022-10-14T22:16:51.643Z,97485.50
2022-10-14T22:19:18.235Z,97486.25
2022-10-14T22:21:44.828Z,97477.22
2022-10-14T22:24:11.481Z,97470.50
2022-10-14T22:26:38.094Z,97473.47
2022-10-14T22:29:04.773Z,97475.25
2022-10-14T22:31:31.420Z,97467.59
2022-10-14T22:33:58.039Z,97468.03
2022-10-14T22:36:24.637Z,97472.47
2022-10-14T22:38:51.271Z,97469.94
2022-10-14T22:41:17.871Z,97469.34
2022-10-14T22:43:44.462Z,97471.84
2022-10-14T22:46:11.086Z,97468.75
2022-10-14T22:48:37.705Z,97467.84
2022-10-14T22:51:04.350Z,97465.13
2022-10-14T22:53:30.941Z,97453.69
2022-10-14T22:55:57.522Z,97456.94
2022-10-14T22:58:24.136Z,97457.97
2022-10-14T23:00:50.732Z,97451.25
2022-10-14T23:03:17.376Z,97451.03
2022-10-14T23:05:44.043Z,97452.28
2022-10-14T23:08:10.671Z,97454.72
2022-10-14T23:10:37.310Z,97448.72
2022-10-14T23:13:03.952Z,97454.16
2022-10-14T23:15:30.565Z,97445.41
2022-10-14T23:17:57.150Z,97449.22
2022-10-14T23:20:23.760Z,97440.59
2022-10-14T23:22:50.384Z,97446.72
2022-10-14T23:25:17.051Z,97440.25
2022-10-14T23:27:43.705Z,97439.78
2022-10-14T23:30:10.332Z,97447.25
2022-10-14T23:32:36.947Z,97455.06
2022-10-14T23:35:03.531Z,97450.50
2022-10-14T23:37:30.144Z,97452.25
2022-10-14T23:39:56.731Z,97448.44
2022-10-14T23:42:23.336Z,97450.50
2022-10-14T23:44:49.946Z,97449.47
2022-10-14T23:47:16.543Z,97444.16
2022-10-14T23:49:43.126Z,97442.53
2022-10-14T23:52:09.726Z,97438.63
2022-10-14T23:54:36.324Z,97438.88
2022-10-14T23:57:02.959Z,97432.25
2022-10-14T23:59:29.544Z,97437.28
